createdAt,value
2022-08-19T00:01:43.349Z,10.77
2022-08-19T00:04:47.488Z,10.75
2022-08-19T00:07:49.487Z,11.95
2022-08-19T00:10:50.786Z,11.80
2022-08-19T00:13:52.109Z,11.95
2022-08-19T00:16:55.279Z,10.98
2022-08-19T00:19:56.886Z,10.43
2022-08-19T00:22:58.439Z,11.57
2022-08-19T00:25:59.865Z,12.32
2022-08-19T00:29:02.024Z,12.32
2022-08-19T00:32:03.434Z,11.02
2022-08-19T00:35:06.211Z,10.68
2022-08-19T00:38:07.614Z,11.27
2022-08-19T00:41:09.713Z,11.45
2022-08-19T00:44:14.666Z,14.18
2022-08-19T00:47:16.075Z,13.27
2022-08-19T00:50:18.670Z,13.25
2022-08-19T00:53:22.602Z,12.90
2022-08-19T00:56:24.456Z,14.98
2022-08-19T00:59:53.371Z,13.43
2022-08-19T01:02:47.709Z,12.95
2022-08-19T01:05:50.460Z,14.82
2022-08-19T01:08:51.986Z,13.27
2022-08-19T01:11:53.377Z,13.25
2022-08-19T01:14:56.011Z,17.02
2022-08-19T01:18:00.700Z,13.13
2022-08-19T01:21:06.297Z,13.23
2022-08-19T01:24:07.646Z,13.90
2022-08-19T01:27:10.829Z,15.73
2022-08-19T01:30:15.145Z,13.15
2022-08-19T01:33:16.687Z,18.10
2022-08-19T01:36:27.103Z,13.73
2022-08-19T01:39:29.122Z,14.07
2022-08-19T01:42:32.992Z,14.85
2022-08-19T01:45:35.732Z,13.93
2022-08-19T01:48:38.403Z,14.98
2022-08-19T01:51:40.483Z,14.38
2022-08-19T01:54:41.942Z,14.07
2022-08-19T01:57:45.208Z,14.10
2022-08-19T02:00:46.676Z,14.63
2022-08-19T02:03:48.075Z,13.68
2022-08-19T02:06:49.398Z,15.65
2022-08-19T02:09:50.687Z,14.25
2022-08-19T02:12:52.084Z,16.15
2022-08-19T02:15:53.751Z,14.07
2022-08-19T02:18:55.636Z,15.50
2022-08-19T02:21:56.952Z,15.00
2022-08-19T02:24:58.665Z,15.23
2022-08-19T02:28:00.105Z,14.05
2022-08-19T02:31:03.351Z,14.07
2022-08-19T02:34:04.718Z,13.48
2022-08-19T02:37:06.267Z,14.55
2022-08-19T02:40:12.449Z,14.45
2022-08-19T02:43:14.094Z,13.65
2022-08-19T02:46:22.032Z,14.30
2022-08-19T02:49:23.563Z,14.98
2022-08-19T02:52:26.394Z,13.82
2022-08-19T02:55:27.711Z,13.65
2022-08-19T02:58:29.108Z,13.43
2022-08-19T03:01:32.065Z,15.05
2022-08-19T03:04:33.407Z,14.10
2022-08-19T03:07:34.703Z,16.52
2022-08-19T03:10:40.596Z,13.93
2022-08-19T03:13:41.936Z,15.93
2022-08-19T03:16:48.001Z,14.00
2022-08-19T03:19:49.302Z,13.65
2022-08-19T03:22:50.606Z,15.32
2022-08-19T03:26:02.806Z,14.80
2022-08-19T03:29:14.181Z,15.45
2022-08-19T03:32:32.539Z,14.75
2022-08-19T03:35:34.258Z,14.60
2022-08-19T03:38:40.358Z,14.73
2022-08-19T03:41:45.844Z,16.60
2022-08-19T03:44:47.514Z,16.73
2022-08-19T03:47:48.914Z,14.63
2022-08-19T03:50:50.983Z,15.45
2022-08-19T03:53:53.214Z,16.77
2022-08-19T03:56:55.633Z,15.85
2022-08-19T03:59:56.941Z,15.73
2022-08-19T04:06:19.755Z,15.57
2022-08-19T04:09:21.427Z,15.02
2022-08-19T04:12:22.757Z,15.63
2022-08-19T04:15:24.058Z,15.95
2022-08-19T04:18:26.435Z,17.55
2022-08-19T04:21:28.338Z,16.60
2022-08-19T04:24:29.662Z,16.73
2022-08-19T04:27:32.130Z,15.95
2022-08-19T04:30:38.242Z,15.82
2022-08-19T04:33:39.529Z,17.27
2022-08-19T04:36:42.257Z,17.05
2022-08-19T04:40:02.671Z,17.25
2022-08-19T04:43:04.155Z,16.05
2022-08-19T04:46:06.566Z,18.00
2022-08-19T04:49:13.137Z,14.95
2022-08-19T04:52:15.258Z,14.77
2022-08-19T04:55:16.619Z,14.05
2022-08-19T04:58:18.414Z,14.98
2022-08-19T05:01:21.966Z,15.30
2022-08-19T05:04:23.406Z,13.95
2022-08-19T05:07:24.713Z,14.93
2022-08-19T05:10:26.058Z,16.20
2022-08-19T05:13:27.785Z,15.82
2022-08-19T05:16:29.190Z,14.60
2022-08-19T05:19:49.078Z,18.08
2022-08-19T05:22:50.564Z,16.60
2022-08-19T05:25:52.645Z,15.45
2022-08-19T05:28:54.761Z,15.45
2022-08-19T05:31:56.696Z,16.83
2022-08-19T05:34:58.044Z,15.77
2022-08-19T05:37:59.386Z,14.20
2022-08-19T05:41:00.815Z,13.77
2022-08-19T05:44:03.612Z,15.05
2022-08-19T05:47:06.404Z,14.40
2022-08-19T05:50:07.941Z,14.88
2022-08-19T05:53:09.889Z,14.98
2022-08-19T05:56:12.669Z,16.10
2022-08-19T05:59:15.231Z,15.60
2022-08-19T06:02:16.882Z,15.23
2022-08-19T06:05:18.312Z,16.05
2022-08-19T06:08:20.536Z,15.00
2022-08-19T06:11:42.561Z,13.95
2022-08-19T06:14:43.867Z,16.85
2022-08-19T06:17:45.491Z,12.48
2022-08-19T06:20:55.797Z,12.63
2022-08-19T06:23:57.876Z,12.98
2022-08-19T06:27:01.653Z,13.10
2022-08-19T06:30:04.367Z,12.57
2022-08-19T06:33:05.727Z,12.98
2022-08-19T06:36:07.184Z,11.30
2022-08-19T06:39:10.519Z,12.32
2022-08-19T06:42:14.002Z,12.63
2022-08-19T06:45:15.701Z,11.82
2022-08-19T06:48:17.062Z,10.80
2022-08-19T06:51:19.921Z,11.32
2022-08-19T06:54:21.476Z,11.25
2022-08-19T06:57:23.006Z,10.32
2022-08-19T07:00:24.403Z,10.07
2022-08-19T07:03:25.870Z,9.63
2022-08-19T07:06:43.717Z,11.57
2022-08-19T07:09:45.892Z,10.18
2022-08-19T07:12:59.835Z,11.60
2022-08-19T07:16:05.674Z,13.13
2022-08-19T07:19:15.573Z,11.50
2022-08-19T07:22:18.793Z,11.90
2022-08-19T07:25:21.861Z,11.82
2022-08-19T07:28:33.914Z,11.00
2022-08-19T07:31:37.794Z,10.65
2022-08-19T07:34:40.114Z,10.43
2022-08-19T07:37:45.165Z,11.18
2022-08-19T07:40:47.091Z,9.93
2022-08-19T07:43:49.385Z,9.13
2022-08-19T07:46:53.331Z,10.65
2022-08-19T07:49:55.105Z,10.38
2022-08-19T07:52:57.611Z,7.78
2022-08-19T07:56:04.873Z,9.10
2022-08-19T07:59:06.431Z,7.63
2022-08-19T08:02:08.763Z,8.18
2022-08-19T08:05:28.954Z,7.20
2022-08-19T08:08:49.458Z,7.72
2022-08-19T08:12:01.928Z,6.78
2022-08-19T08:15:08.874Z,7.80
2022-08-19T08:18:14.569Z,6.93
2022-08-19T08:21:15.920Z,6.22
2022-08-19T08:24:17.538Z,6.20
2022-08-19T08:27:20.903Z,6.38
2022-08-19T08:30:31.036Z,7.35
2022-08-19T08:33:35.180Z,5.82
2022-08-19T08:36:41.720Z,6.38
2022-08-19T08:39:43.141Z,5.18
2022-08-19T08:42:47.714Z,5.18
2022-08-19T08:45:53.479Z,5.82
2022-08-19T08:48:58.769Z,4.43
2022-08-19T08:52:04.195Z,6.45
2022-08-19T08:55:10.459Z,6.53
2022-08-19T08:58:31.618Z,4.82
2022-08-19T09:01:33.059Z,5.57
2022-08-19T09:04:38.476Z,5.57
2022-08-19T09:07:54.898Z,5.50
2022-08-19T09:10:58.250Z,5.57
2022-08-19T09:14:35.060Z,5.60
2022-08-19T09:17:39.305Z,6.35
2022-08-19T09:20:42.957Z,5.00
2022-08-19T09:23:44.587Z,4.45
2022-08-19T09:26:48.659Z,4.88
2022-08-19T09:29:54.899Z,5.93
2022-08-19T09:32:56.346Z,4.63
2022-08-19T09:36:08.663Z,4.50
2022-08-19T09:39:16.001Z,4.28
2022-08-19T09:42:20.240Z,5.18
2022-08-19T09:45:31.193Z,4.43
2022-08-19T09:48:36.070Z,4.80
2022-08-19T09:51:37.466Z,3.85
2022-08-19T09:54:39.146Z,4.82
2022-08-19T09:57:45.521Z,4.95
2022-08-19T10:00:51.488Z,4.93
2022-08-19T10:03:54.761Z,3.85
2022-08-19T10:06:59.120Z,5.38
2022-08-19T10:10:01.171Z,5.38
2022-08-19T10:13:02.475Z,6.35
2022-08-19T10:16:08.518Z,5.60
2022-08-19T10:19:11.833Z,5.65
2022-08-19T10:22:14.723Z,5.55
2022-08-19T10:25:18.276Z,6.25
2022-08-19T10:28:19.758Z,7.50
2022-08-19T10:32:00.713Z,5.50
2022-08-19T10:34:48.408Z,5.20
2022-08-19T10:37:57.264Z,5.55
2022-08-19T10:41:18.016Z,5.60
2022-08-19T10:44:20.486Z,6.10
2022-08-19T10:47:25.433Z,5.93
2022-08-19T10:50:46.407Z,7.28
2022-08-19T10:53:48.954Z,6.85
2022-08-19T10:56:53.242Z,6.07
2022-08-19T10:59:54.526Z,6.50
2022-08-19T11:02:56.700Z,8.45
2022-08-19T11:06:01.555Z,7.95
2022-08-19T11:09:03.798Z,6.55
2022-08-19T11:12:05.700Z,6.82
2022-08-19T11:15:11.658Z,6.35
2022-08-19T11:18:13.518Z,6.28
2022-08-19T11:21:18.185Z,5.90
2022-08-19T11:24:21.259Z,6.07
2022-08-19T11:27:22.606Z,5.47
2022-08-19T11:30:24.132Z,5.35
2022-08-19T11:33:27.213Z,5.68
2022-08-19T11:36:28.880Z,7.00
2022-08-19T11:39:31.633Z,6.25
2022-08-19T11:45:56.680Z,6.78
2022-08-19T11:48:59.915Z,6.97
2022-08-19T11:52:01.416Z,7.95
2022-08-19T11:55:03.196Z,5.88
2022-08-19T11:58:06.818Z,5.38
2022-08-19T12:01:21.837Z,6.13
2022-08-19T12:04:23.869Z,5.40
2022-08-19T12:07:25.720Z,5.07
2022-08-19T12:10:26.996Z,6.75
2022-08-19T12:13:29.390Z,5.60
2022-08-19T12:16:32.465Z,4.53
2022-08-19T12:19:34.934Z,5.43
2022-08-19T12:22:36.823Z,7.28
2022-08-19T12:25:39.007Z,5.50
2022-08-19T12:28:40.478Z,5.45
2022-08-19T12:31:41.835Z,5.30
2022-08-19T12:34:44.417Z,6.20
2022-08-19T12:37:46.048Z,5.80
2022-08-19T12:41:00.409Z,5.47
2022-08-19T12:44:01.894Z,7.03
2022-08-19T12:47:04.761Z,5.70
2022-08-19T12:50:09.495Z,5.82
2022-08-19T12:53:11.209Z,4.95
2022-08-19T12:56:15.250Z,5.43
2022-08-19T12:59:18.500Z,5.78
2022-08-19T13:02:20.682Z,4.60
2022-08-19T13:05:24.065Z,4.85
2022-08-19T13:08:25.395Z,4.70
2022-08-19T13:11:26.764Z,4.40
2022-08-19T13:14:28.226Z,4.70
2022-08-19T13:17:29.549Z,4.25
2022-08-19T13:20:30.989Z,4.47
2022-08-19T13:23:32.482Z,4.15
2022-08-19T13:26:33.905Z,4.38
2022-08-19T13:29:54.360Z,5.10
2022-08-19T13:33:15.576Z,4.07
2022-08-19T13:36:17.604Z,5.22
2022-08-19T13:39:18.915Z,4.80
2022-08-19T13:42:20.212Z,4.65
2022-08-19T13:45:23.138Z,5.07
2022-08-19T13:51:25.930Z,4.60
2022-08-19T13:54:27.968Z,4.78
2022-08-19T13:57:29.258Z,4.03
2022-08-19T14:00:32.394Z,5.05
2022-08-19T14:03:34.027Z,5.18
2022-08-19T14:06:35.413Z,5.13
2022-08-19T14:09:36.768Z,4.90
2022-08-19T14:12:38.205Z,4.07
2022-08-19T14:15:39.550Z,5.50
2022-08-19T14:18:41.107Z,4.68
2022-08-19T14:21:42.422Z,3.92
2022-08-19T14:24:47.789Z,4.55
2022-08-19T14:27:49.835Z,5.97
2022-08-19T14:30:51.159Z,5.50
2022-08-19T14:33:56.694Z,4.00
2022-08-19T14:36:58.682Z,4.63
2022-08-19T14:40:04.698Z,6.25
2022-08-19T14:46:08.157Z,5.13
2022-08-19T14:49:11.872Z,3.85
2022-08-19T14:52:13.674Z,4.28
2022-08-19T14:55:15.975Z,4.13
2022-08-19T14:58:29.451Z,4.30
2022-08-19T15:01:31.779Z,4.43
2022-08-19T15:04:33.905Z,3.90
2022-08-19T15:07:35.249Z,5.90
2022-08-19T15:10:37.044Z,4.13
2022-08-19T15:13:38.722Z,4.10
2022-08-19T15:16:42.580Z,4.22
2022-08-19T15:19:44.518Z,4.13
2022-08-19T15:22:46.391Z,3.88
2022-08-19T15:25:48.032Z,3.92
2022-08-19T15:28:49.571Z,3.90
2022-08-19T15:31:51.823Z,3.60
2022-08-19T15:34:56.070Z,4.60
2022-08-19T15:37:57.558Z,3.08
2022-08-19T15:41:19.008Z,3.33
2022-08-19T15:44:22.074Z,3.78
2022-08-19T15:47:23.569Z,3.83
2022-08-19T15:50:25.051Z,3.92
2022-08-19T15:53:26.814Z,3.50
2022-08-19T15:56:57.933Z,3.75
2022-08-19T16:00:18.420Z,4.22
2022-08-19T16:03:41.318Z,4.10
2022-08-19T16:06:47.103Z,4.30
2022-08-19T16:09:48.436Z,3.88
2022-08-19T16:12:49.755Z,4.00
2022-08-19T16:15:51.137Z,4.38
2022-08-19T16:18:53.563Z,4.32
2022-08-19T16:21:55.985Z,4.07
2022-08-19T16:24:57.522Z,4.00
2022-08-19T16:28:07.844Z,4.15
2022-08-19T16:31:10.838Z,5.15
2022-08-19T16:34:12.883Z,4.63
2022-08-19T16:37:14.372Z,4.25
2022-08-19T16:40:15.917Z,4.57
2022-08-19T16:43:17.287Z,4.32
2022-08-19T16:46:22.792Z,5.30
2022-08-19T16:49:53.438Z,5.03
2022-08-19T16:55:53.990Z,4.63
2022-08-19T16:58:59.784Z,4.60
2022-08-19T17:02:01.544Z,5.45
2022-08-19T17:05:03.204Z,5.38
2022-08-19T17:08:04.573Z,5.00
2022-08-19T17:11:18.084Z,5.43
2022-08-19T17:14:21.815Z,4.85
2022-08-19T17:17:28.345Z,5.40
2022-08-19T17:20:31.028Z,4.50
2022-08-19T17:23:42.438Z,5.13
2022-08-19T17:26:45.695Z,4.95
2022-08-19T17:29:47.338Z,4.53
2022-08-19T17:32:49.000Z,4.70
2022-08-19T17:35:50.411Z,5.85
2022-08-19T17:38:52.750Z,4.72
2022-08-19T17:41:54.048Z,4.40
2022-08-19T17:44:59.363Z,5.28
2022-08-19T17:48:01.340Z,5.43
2022-08-19T17:51:12.815Z,5.18
2022-08-19T17:54:15.521Z,5.72
2022-08-19T17:57:16.979Z,6.53
2022-08-19T18:00:18.385Z,5.40
2022-08-19T18:03:19.775Z,5.30
2022-08-19T18:06:21.080Z,6.25
2022-08-19T18:09:24.466Z,5.80
2022-08-19T18:12:26.847Z,5.85
2022-08-19T18:15:28.858Z,5.63
2022-08-19T18:18:30.149Z,6.88
2022-08-19T18:21:31.835Z,5.68
2022-08-19T18:24:33.129Z,6.07
2022-08-19T18:27:34.422Z,6.43
2022-08-19T18:30:35.827Z,5.40
2022-08-19T18:33:44.208Z,6.10
2022-08-19T18:36:54.186Z,6.13
2022-08-19T18:40:14.487Z,5.80
2022-08-19T18:43:34.571Z,5.40
2022-08-19T18:46:54.593Z,5.60
2022-08-19T18:50:02.422Z,5.38
2022-08-19T18:53:05.221Z,6.70
2022-08-19T18:56:08.008Z,5.80
2022-08-19T18:59:09.574Z,6.60
2022-08-19T19:02:12.890Z,5.15
2022-08-19T19:05:14.734Z,5.45
2022-08-19T19:08:17.247Z,5.72
2022-08-19T19:11:23.504Z,5.63
2022-08-19T19:14:48.191Z,4.97
2022-08-19T19:17:50.285Z,6.53
2022-08-19T19:20:51.618Z,5.70
2022-08-19T19:23:54.289Z,6.32
2022-08-19T19:26:56.530Z,5.50
2022-08-19T19:29:57.872Z,5.85
2022-08-19T19:33:01.925Z,5.70
2022-08-19T19:36:03.552Z,4.95
2022-08-19T19:39:05.042Z,6.57
2022-08-19T19:42:07.798Z,6.20
2022-08-19T19:45:22.808Z,5.75
2022-08-19T19:48:24.714Z,5.30
2022-08-19T19:51:26.769Z,5.47
2022-08-19T19:54:28.083Z,6.50
2022-08-19T19:57:30.265Z,6.25
2022-08-19T20:00:31.614Z,4.93
2022-08-19T20:03:33.356Z,6.70
2022-08-19T20:06:34.687Z,4.93
2022-08-19T20:09:58.239Z,5.97
2022-08-19T20:12:57.249Z,5.80
2022-08-19T20:15:58.701Z,6.13
2022-08-19T20:19:00.928Z,6.80
2022-08-19T20:22:02.837Z,6.00
2022-08-19T20:25:06.246Z,6.90
2022-08-19T20:28:08.206Z,6.50
2022-08-19T20:31:10.292Z,6.03
2022-08-19T20:34:11.626Z,5.47
2022-08-19T20:37:12.940Z,5.63
2022-08-19T20:40:14.877Z,6.13
2022-08-19T20:43:16.290Z,6.20
2022-08-19T20:46:18.050Z,5.43
2022-08-19T20:49:19.431Z,7.43
2022-08-19T20:52:21.595Z,6.55
2022-08-19T20:55:22.975Z,5.43
2022-08-19T20:58:25.083Z,6.15
2022-08-19T21:01:26.527Z,5.65
2022-08-19T21:04:28.137Z,5.82
2022-08-19T21:07:39.209Z,6.25
2022-08-19T21:10:42.509Z,5.60
2022-08-19T21:13:43.943Z,5.55
2022-08-19T21:16:46.146Z,7.15
2022-08-19T21:19:47.495Z,6.35
2022-08-19T21:22:48.818Z,6.63
2022-08-19T21:25:54.346Z,5.68
2022-08-19T21:28:56.099Z,6.97
2022-08-19T21:31:57.572Z,6.65
2022-08-19T21:34:58.872Z,7.30
2022-08-19T21:38:00.255Z,6.72
2022-08-19T21:41:05.969Z,6.70
2022-08-19T21:44:07.727Z,6.32
2022-08-19T21:47:09.122Z,6.75
2022-08-19T21:50:12.633Z,7.18
2022-08-19T21:53:17.754Z,5.95
2022-08-19T21:56:19.138Z,6.15
2022-08-19T21:59:21.902Z,5.85
2022-08-19T22:02:23.409Z,6.35
2022-08-19T22:05:25.178Z,5.93
2022-08-19T22:08:27.169Z,6.15
2022-08-19T22:11:28.469Z,5.95
2022-08-19T22:14:29.759Z,7.15
2022-08-19T22:17:33.210Z,6.15
2022-08-19T22:20:34.498Z,7.63
2022-08-19T22:23:35.855Z,6.20
2022-08-19T22:26:37.216Z,6.22
2022-08-19T22:29:38.534Z,6.00
2022-08-19T22:32:45.145Z,7.00
2022-08-19T22:35:47.235Z,5.80
2022-08-19T22:38:48.591Z,7.00
2022-08-19T22:41:49.891Z,8.50
2022-08-19T22:44:51.444Z,7.55
2022-08-19T22:47:52.798Z,7.05
2022-08-19T22:51:12.998Z,6.90
2022-08-19T22:54:14.374Z,6.15
2022-08-19T22:57:16.309Z,6.80
2022-08-19T23:00:17.636Z,5.63
2022-08-19T23:03:19.644Z,6.13
2022-08-19T23:06:20.930Z,6.38
2022-08-19T23:09:23.351Z,6.55
2022-08-19T23:12:37.791Z,6.72
2022-08-19T23:15:39.096Z,5.90
2022-08-19T23:18:41.323Z,6.65
2022-08-19T23:21:42.967Z,5.60
2022-08-19T23:24:44.537Z,5.97
2022-08-19T23:28:04.395Z,6.18
2022-08-19T23:31:06.404Z,6.07
2022-08-19T23:34:07.779Z,6.88
2022-08-19T23:37:09.086Z,6.25
2022-08-19T23:40:10.932Z,6.20
2022-08-19T23:43:16.987Z,7.55
2022-08-19T23:46:27.395Z,7.00
2022-08-19T23:49:31.256Z,6.72
2022-08-19T23:52:34.300Z,6.43
2022-08-19T23:55:37.243Z,7.07
2022-08-19T23:58:39.479Z,7.25
